createdAt,value
2023-02-12T00:00:03.977Z,2.29
2023-02-12T00:02:41.787Z,2.29
2023-02-12T00:05:08.658Z,2.28
2023-02-12T00:07:35.299Z,2.27
2023-02-12T00:10:02.267Z,2.26
2023-02-12T00:12:28.982Z,2.25
2023-02-12T00:14:55.747Z,2.23
2023-02-12T00:17:22.411Z,2.22
2023-02-12T00:19:49.252Z,2.22
2023-02-12T00:22:15.937Z,2.21
2023-02-12T00:24:42.750Z,2.21
2023-02-12T00:27:09.419Z,2.21
2023-02-12T00:29:37.384Z,2.19
2023-02-12T00:32:05.504Z,2.21
2023-02-12T00:34:32.388Z,2.19
2023-02-12T00:36:59.073Z,2.18
2023-02-12T00:39:26.821Z,2.19
2023-02-12T00:41:53.509Z,2.20
2023-02-12T00:44:20.275Z,2.18
2023-02-12T00:46:47.042Z,2.16
2023-02-12T00:49:16.086Z,2.15
2023-02-12T00:51:42.771Z,2.13
2023-02-12T00:54:10.665Z,2.13
2023-02-12T00:56:37.383Z,2.13
2023-02-12T00:59:04.169Z,2.13
2023-02-12T01:01:30.875Z,2.10
2023-02-12T01:03:57.729Z,2.12
2023-02-12T01:06:26.305Z,2.08
2023-02-12T01:08:53.684Z,2.07
2023-02-12T01:11:20.853Z,2.06
2023-02-12T01:13:48.608Z,2.05
2023-02-12T01:16:20.912Z,2.04
2023-02-12T01:18:47.922Z,2.02
2023-02-12T01:21:17.391Z,2.03
2023-02-12T01:23:44.438Z,2.02
2023-02-12T01:26:12.195Z,2.01
2023-02-12T01:28:39.703Z,1.99
2023-02-12T01:31:10.836Z,1.99
2023-02-12T01:33:37.759Z,1.99
2023-02-12T01:36:04.602Z,1.98
2023-02-12T01:38:31.687Z,1.96
2023-02-12T01:41:06.528Z,1.97
2023-02-12T01:43:34.811Z,1.95
2023-02-12T01:46:02.017Z,1.95
2023-02-12T01:48:32.833Z,1.95
2023-02-12T01:50:59.563Z,1.94
2023-02-12T01:53:31.549Z,1.92
2023-02-12T01:55:59.809Z,1.92
2023-02-12T01:58:28.866Z,1.89
2023-02-12T02:00:55.818Z,1.88
2023-02-12T02:03:23.730Z,1.86
2023-02-12T02:05:58.606Z,1.86
2023-02-12T02:08:26.205Z,1.83
2023-02-12T02:10:52.916Z,1.83
2023-02-12T02:13:38.331Z,1.81
2023-02-12T02:16:15.843Z,1.79
2023-02-12T02:19:31.053Z,1.77
2023-02-12T02:22:22.475Z,1.76
2023-02-12T02:25:15.268Z,1.75
2023-02-12T02:28:03.740Z,1.73
2023-02-12T02:30:55.859Z,1.72
2023-02-12T02:33:55.191Z,1.69
2023-02-12T02:36:54.173Z,1.68
2023-02-12T02:40:06.103Z,1.67
2023-02-12T02:42:37.722Z,1.66
2023-02-12T02:45:14.768Z,1.65
2023-02-12T02:47:45.053Z,1.65
2023-02-12T02:50:20.716Z,1.65
2023-02-12T02:52:51.152Z,1.65
2023-02-12T02:55:19.689Z,1.64
2023-02-12T02:57:51.478Z,1.65
2023-02-12T03:00:33.882Z,1.64
2023-02-12T03:03:05.835Z,1.63
2023-02-12T03:05:36.281Z,1.65
2023-02-12T03:08:13.915Z,1.63
2023-02-12T03:10:45.999Z,1.62
2023-02-12T03:13:18.721Z,1.65
2023-02-12T03:15:53.547Z,1.64
2023-02-12T03:18:24.817Z,1.64
2023-02-12T03:21:00.724Z,1.63
2023-02-12T03:23:38.670Z,1.63
2023-02-12T03:26:10.092Z,1.62
2023-02-12T03:28:38.736Z,1.64
2023-02-12T03:31:37.982Z,1.61
2023-02-12T03:34:57.425Z,1.58
2023-02-12T03:37:50.794Z,1.56
2023-02-12T03:40:21.058Z,1.55
2023-02-12T03:43:04.606Z,1.55
2023-02-12T03:45:49.508Z,1.55
2023-02-12T03:48:23.596Z,1.56
2023-02-12T03:51:11.820Z,1.59
2023-02-12T03:53:38.532Z,1.55
2023-02-12T03:56:13.838Z,1.57
2023-02-12T03:58:41.478Z,1.58
2023-02-12T04:01:08.883Z,1.56
2023-02-12T04:03:35.705Z,1.57
2023-02-12T04:06:02.403Z,1.55
2023-02-12T04:08:29.663Z,1.54
2023-02-12T04:11:11.903Z,1.55
2023-02-12T04:14:00.029Z,1.52
2023-02-12T04:16:45.396Z,1.52
2023-02-12T04:19:18.329Z,1.50
2023-02-12T04:21:54.867Z,1.51
2023-02-12T04:24:45.019Z,1.51
2023-02-12T04:27:23.117Z,1.51
2023-02-12T04:30:08.204Z,1.50
2023-02-12T04:32:51.083Z,1.50
2023-02-12T04:35:26.492Z,1.50
2023-02-12T04:38:22.515Z,1.51
2023-02-12T04:40:49.569Z,1.48
2023-02-12T04:43:28.504Z,1.44
2023-02-12T04:45:55.622Z,1.44
2023-02-12T04:48:22.726Z,1.47
2023-02-12T04:50:49.532Z,1.48
2023-02-12T04:53:16.270Z,1.45
2023-02-12T04:55:43.328Z,1.47
2023-02-12T04:58:10.126Z,1.47
2023-02-12T05:00:37.097Z,1.45
2023-02-12T05:03:04.177Z,1.45
2023-02-12T05:05:31.044Z,1.44
2023-02-12T05:07:57.766Z,1.43
2023-02-12T05:10:24.544Z,1.42
2023-02-12T05:12:55.433Z,1.42
2023-02-12T05:15:22.965Z,1.40
2023-02-12T05:17:49.755Z,1.40
2023-02-12T05:20:16.719Z,1.42
2023-02-12T05:22:43.571Z,1.40
2023-02-12T05:25:10.445Z,1.37
2023-02-12T05:27:37.409Z,1.36
2023-02-12T05:30:05.659Z,1.35
2023-02-12T05:32:32.749Z,1.35
2023-02-12T05:34:59.438Z,1.33
2023-02-12T05:37:26.328Z,1.31
2023-02-12T05:39:53.881Z,1.30
2023-02-12T05:42:20.692Z,1.31
2023-02-12T05:44:47.375Z,1.29
2023-02-12T05:47:14.228Z,1.27
2023-02-12T05:49:40.959Z,1.26
2023-02-12T05:52:07.739Z,1.25
2023-02-12T05:54:34.441Z,1.28
2023-02-12T05:57:01.261Z,1.29
2023-02-12T05:59:27.955Z,1.28
2023-02-12T06:01:54.933Z,1.27
2023-02-12T06:04:25.454Z,1.26
2023-02-12T06:06:53.111Z,1.25
2023-02-12T06:09:20.119Z,1.24
2023-02-12T06:11:46.885Z,1.24
2023-02-12T06:14:18.810Z,1.21
2023-02-12T06:16:50.029Z,1.20
2023-02-12T06:19:17.112Z,1.19
2023-02-12T06:21:44.278Z,1.20
2023-02-12T06:24:15.352Z,1.19
2023-02-12T06:26:42.379Z,1.19
2023-02-12T06:29:09.606Z,1.18
2023-02-12T06:31:37.666Z,1.16
2023-02-12T06:34:07.248Z,1.14
2023-02-12T06:36:36.413Z,1.12
2023-02-12T06:39:03.600Z,1.12
2023-02-12T06:41:30.341Z,1.10
2023-02-12T06:43:57.119Z,1.10
2023-02-12T06:46:24.217Z,1.09
2023-02-12T06:48:55.158Z,1.10
2023-02-12T06:51:23.563Z,1.10
2023-02-12T06:53:52.274Z,1.08
2023-02-12T06:56:20.243Z,1.05
2023-02-12T06:58:48.750Z,1.05
2023-02-12T07:01:21.630Z,1.05
2023-02-12T07:03:50.743Z,1.05
2023-02-12T07:06:18.085Z,1.04
2023-02-12T07:08:50.545Z,1.05
2023-02-12T07:11:32.342Z,1.03
2023-02-12T07:14:03.563Z,1.02
2023-02-12T07:16:31.349Z,1.00
2023-02-12T07:19:01.402Z,0.99
2023-02-12T07:21:35.452Z,0.98
2023-02-12T07:24:03.638Z,0.98
2023-02-12T07:26:38.678Z,0.98
2023-02-12T07:29:09.372Z,0.97
2023-02-12T07:31:43.461Z,0.97
2023-02-12T07:34:19.416Z,0.97
2023-02-12T07:36:48.622Z,0.98
2023-02-12T07:39:15.332Z,0.98
2023-02-12T07:41:46.069Z,0.98
2023-02-12T07:44:20.319Z,1.00
2023-02-12T07:46:58.462Z,1.00
2023-02-12T07:49:29.591Z,0.55
2023-02-12T07:51:57.414Z,0.19
2023-02-12T07:54:24.105Z,0.08
2023-02-12T07:56:52.204Z,0.16
2023-02-12T07:59:19.640Z,0.07
2023-02-12T08:01:51.262Z,-0.03
2023-02-12T08:04:20.797Z,-0.11
2023-02-12T08:06:49.533Z,-0.06
2023-02-12T08:09:22.165Z,0.09
2023-02-12T08:11:49.144Z,0.05
2023-02-12T08:14:18.513Z,0.07
2023-02-12T08:16:46.983Z,0.08
2023-02-12T08:19:20.134Z,0.13
2023-02-12T08:21:52.882Z,0.17
2023-02-12T08:24:22.012Z,0.21
2023-02-12T08:26:48.865Z,0.25
2023-02-12T08:29:17.863Z,0.27
2023-02-12T08:31:46.554Z,0.36
2023-02-12T08:34:20.451Z,0.46
2023-02-12T08:36:48.587Z,0.57
2023-02-12T08:39:16.052Z,0.68
2023-02-12T08:41:42.858Z,0.70
2023-02-12T08:44:10.271Z,0.75
2023-02-12T08:46:39.334Z,0.84
2023-02-12T08:49:10.237Z,0.94
2023-02-12T08:51:38.126Z,1.05
2023-02-12T08:54:07.518Z,1.22
2023-02-12T08:56:35.102Z,1.46
2023-02-12T08:59:04.184Z,1.69
2023-02-12T09:01:35.850Z,1.72
2023-02-12T09:04:02.964Z,2.00
2023-02-12T09:06:32.282Z,2.18
2023-02-12T09:08:59.049Z,2.54
2023-02-12T09:11:30.780Z,3.03
2023-02-12T09:14:02.465Z,3.50
2023-02-12T09:16:31.340Z,3.80
2023-02-12T09:18:58.258Z,3.92
2023-02-12T09:21:25.276Z,3.95
2023-02-12T09:23:52.585Z,3.92
2023-02-12T09:26:22.109Z,3.88
2023-02-12T09:28:50.240Z,3.87
2023-02-12T09:31:20.911Z,3.82
2023-02-12T09:33:51.155Z,3.88
2023-02-12T09:36:19.512Z,3.96
2023-02-12T09:38:46.285Z,4.10
2023-02-12T09:41:22.205Z,4.14
2023-02-12T09:43:53.911Z,4.23
2023-02-12T09:46:26.735Z,4.31
2023-02-12T09:49:11.444Z,4.41
2023-02-12T09:51:40.280Z,4.38
2023-02-12T09:54:16.060Z,4.49
2023-02-12T09:56:54.373Z,4.57
2023-02-12T09:59:40.816Z,4.77
2023-02-12T10:02:18.374Z,4.92
2023-02-12T10:05:00.187Z,5.06
2023-02-12T10:07:37.910Z,5.15
2023-02-12T10:10:42.231Z,5.38
2023-02-12T10:13:18.240Z,5.45
2023-02-12T10:15:52.850Z,5.46
2023-02-12T10:18:38.408Z,5.50
2023-02-12T10:21:38.092Z,5.57
2023-02-12T10:24:36.785Z,5.70
2023-02-12T10:27:09.949Z,5.76
2023-02-12T10:29:38.230Z,5.86
2023-02-12T10:32:10.339Z,5.95
2023-02-12T10:34:37.775Z,6.04
2023-02-12T10:37:12.411Z,6.17
2023-02-12T10:39:43.991Z,6.33
2023-02-12T10:42:35.062Z,6.41
2023-02-12T10:45:01.987Z,6.52
2023-02-12T10:47:28.671Z,6.63
2023-02-12T10:50:01.703Z,6.74
2023-02-12T10:52:48.662Z,6.79
2023-02-12T10:55:30.499Z,6.90
2023-02-12T10:57:59.399Z,6.97
2023-02-12T11:00:30.289Z,7.04
2023-02-12T11:03:12.620Z,7.14
2023-02-12T11:05:41.509Z,7.22
2023-02-12T11:08:11.941Z,7.34
2023-02-12T11:10:40.836Z,7.34
2023-02-12T11:13:27.168Z,7.35
2023-02-12T11:15:55.579Z,7.42
2023-02-12T11:18:28.250Z,7.49
2023-02-12T11:20:58.460Z,7.54
2023-02-12T11:23:32.364Z,7.59
2023-02-12T11:25:59.170Z,7.63
2023-02-12T11:28:26.108Z,7.64
2023-02-12T11:30:56.149Z,7.77
2023-02-12T11:33:24.272Z,7.84
2023-02-12T11:36:10.870Z,7.84
2023-02-12T11:38:49.381Z,7.94
2023-02-12T11:41:39.842Z,8.01
2023-02-12T11:44:19.543Z,8.11
2023-02-12T11:46:52.338Z,8.32
2023-02-12T11:49:20.630Z,8.31
2023-02-12T11:51:47.687Z,8.27
2023-02-12T11:54:20.623Z,8.28
2023-02-12T11:56:48.297Z,8.45
2023-02-12T11:59:31.504Z,8.50
2023-02-12T12:02:20.609Z,8.71
2023-02-12T12:04:47.269Z,8.77
2023-02-12T12:07:28.491Z,8.78
2023-02-12T12:10:01.917Z,8.78
2023-02-12T12:12:31.695Z,8.76
2023-02-12T12:15:18.540Z,8.80
2023-02-12T12:18:09.466Z,8.82
2023-02-12T12:20:45.891Z,8.91
2023-02-12T12:23:16.651Z,9.01
2023-02-12T12:25:47.742Z,9.10
2023-02-12T12:28:29.031Z,9.19
2023-02-12T12:31:10.311Z,9.19
2023-02-12T12:33:40.110Z,9.16
2023-02-12T12:36:18.576Z,9.16
2023-02-12T12:38:45.166Z,9.25
2023-02-12T12:41:30.652Z,9.32
2023-02-12T12:44:19.923Z,9.27
2023-02-12T12:46:56.163Z,9.25
2023-02-12T12:49:32.232Z,9.25
2023-02-12T12:52:01.613Z,9.34
2023-02-12T12:54:44.875Z,9.52
2023-02-12T12:57:30.436Z,9.49
2023-02-12T13:00:15.812Z,9.48
2023-02-12T13:02:54.471Z,9.51
2023-02-12T13:05:24.169Z,9.53
2023-02-12T13:07:50.738Z,9.62
2023-02-12T13:10:17.505Z,9.64
2023-02-12T13:13:03.019Z,9.66
2023-02-12T13:15:32.878Z,9.71
2023-02-12T13:18:02.407Z,9.76
2023-02-12T13:20:29.022Z,9.82
2023-02-12T13:23:01.673Z,9.91
2023-02-12T13:25:32.761Z,9.96
2023-02-12T13:27:59.890Z,9.93
2023-02-12T13:30:46.881Z,9.89
2023-02-12T13:33:17.000Z,9.87
2023-02-12T13:35:46.604Z,9.91
2023-02-12T13:38:25.414Z,9.92
2023-02-12T13:40:55.446Z,9.92
2023-02-12T13:43:30.732Z,9.97
2023-02-12T13:46:21.983Z,10.08
2023-02-12T13:48:58.396Z,10.06
2023-02-12T13:51:46.594Z,10.02
2023-02-12T13:54:31.601Z,10.03
2023-02-12T13:57:01.316Z,10.02
2023-02-12T13:59:39.997Z,10.05
2023-02-12T14:02:12.610Z,10.00
2023-02-12T14:04:44.169Z,9.95
2023-02-12T14:07:13.581Z,9.90
2023-02-12T14:09:43.591Z,9.91
2023-02-12T14:12:15.568Z,9.97
2023-02-12T14:14:48.069Z,10.03
2023-02-12T14:17:30.853Z,10.05
2023-02-12T14:20:09.196Z,10.08
2023-02-12T14:22:35.928Z,10.12
2023-02-12T14:25:15.069Z,10.12
2023-02-12T14:27:42.855Z,10.16
2023-02-12T14:30:09.905Z,10.20
2023-02-12T14:32:58.254Z,10.17
2023-02-12T14:35:31.191Z,10.10
2023-02-12T14:38:03.639Z,9.88
2023-02-12T14:40:44.494Z,9.68
2023-02-12T14:43:54.993Z,9.61
2023-02-12T14:46:24.872Z,9.58
2023-02-12T14:48:51.760Z,9.54
2023-02-12T14:51:45.054Z,9.45
2023-02-12T14:54:18.326Z,9.29
2023-02-12T14:56:47.954Z,9.08
2023-02-12T14:59:20.716Z,8.87
2023-02-12T15:01:48.503Z,8.69
2023-02-12T15:04:21.857Z,8.48
2023-02-12T15:07:08.297Z,8.40
2023-02-12T15:09:45.184Z,8.29
2023-02-12T15:12:26.762Z,8.11
2023-02-12T15:15:04.863Z,7.95
2023-02-12T15:17:35.256Z,7.73
2023-02-12T15:20:08.406Z,7.58
2023-02-12T15:22:38.230Z,7.41
2023-02-12T15:25:38.479Z,7.23
2023-02-12T15:28:19.680Z,7.05
2023-02-12T15:30:46.660Z,6.99
2023-02-12T15:33:27.149Z,6.79
2023-02-12T15:35:54.319Z,6.61
2023-02-12T15:38:24.995Z,6.46
2023-02-12T15:40:59.688Z,6.29
2023-02-12T15:43:28.953Z,6.20
2023-02-12T15:45:56.145Z,6.11
2023-02-12T15:48:29.681Z,5.87
2023-02-12T15:51:05.321Z,5.77
2023-02-12T15:53:32.854Z,5.69
2023-02-12T15:56:00.592Z,5.55
2023-02-12T15:58:29.710Z,5.44
2023-02-12T16:01:05.506Z,5.43
2023-02-12T16:03:34.931Z,5.34
2023-02-12T16:06:16.882Z,5.19
2023-02-12T16:08:45.902Z,5.30
2023-02-12T16:11:14.137Z,5.32
2023-02-12T16:13:45.906Z,5.31
2023-02-12T16:16:12.650Z,5.16
2023-02-12T16:18:41.291Z,5.18
2023-02-12T16:21:23.516Z,5.13
2023-02-12T16:23:51.362Z,5.00
2023-02-12T16:26:26.168Z,4.94
2023-02-12T16:28:56.628Z,4.74
2023-02-12T16:31:26.567Z,4.69
2023-02-12T16:33:56.172Z,4.65
2023-02-12T16:36:22.949Z,4.58
2023-02-12T16:39:02.783Z,4.47
2023-02-12T16:41:32.422Z,4.37
2023-02-12T16:44:02.177Z,4.39
2023-02-12T16:46:31.048Z,4.49
2023-02-12T16:48:59.102Z,4.53
2023-02-12T16:51:29.596Z,4.49
2023-02-12T16:53:57.974Z,4.32
2023-02-12T16:56:31.608Z,4.17
2023-02-12T16:59:00.191Z,4.04
2023-02-12T17:01:37.335Z,3.94
2023-02-12T17:04:09.052Z,3.85
2023-02-12T17:06:35.805Z,3.72
2023-02-12T17:09:02.518Z,3.72
2023-02-12T17:11:29.647Z,3.72
2023-02-12T17:13:56.754Z,3.61
2023-02-12T17:16:32.257Z,3.53
2023-02-12T17:19:00.238Z,3.48
2023-02-12T17:21:38.047Z,3.43
2023-02-12T17:24:22.319Z,3.35
2023-02-12T17:26:53.245Z,3.29
2023-02-12T17:29:21.852Z,3.23
2023-02-12T17:31:49.372Z,3.22
2023-02-12T17:34:16.691Z,3.12
2023-02-12T17:36:43.432Z,3.06
2023-02-12T17:39:12.692Z,3.07
2023-02-12T17:41:40.646Z,3.07
2023-02-12T17:44:07.817Z,3.04
2023-02-12T17:46:34.782Z,3.06
2023-02-12T17:49:01.648Z,3.02
2023-02-12T17:51:28.416Z,3.02
2023-02-12T17:53:55.199Z,3.01
2023-02-12T17:56:25.707Z,2.97
2023-02-12T18:01:48.502Z,3.20
2023-02-12T18:04:15.545Z,3.52
2023-02-12T18:18:57.527Z,4.60
2023-02-12T18:21:24.267Z,4.71
2023-02-12T18:23:53.330Z,4.79
2023-02-12T18:26:20.324Z,4.85
2023-02-12T18:28:47.021Z,4.92
2023-02-12T18:31:14.010Z,4.98
2023-02-12T18:33:41.260Z,5.04
2023-02-12T18:36:11.300Z,5.09
2023-02-12T18:38:39.109Z,5.13
2023-02-12T18:41:08.040Z,5.17
2023-02-12T18:43:36.666Z,5.21
2023-02-12T18:46:07.589Z,5.26
2023-02-12T18:48:34.348Z,5.30
2023-02-12T18:51:05.721Z,5.33
2023-02-12T18:53:32.589Z,5.36
2023-02-12T18:55:59.832Z,5.36
2023-02-12T18:58:28.209Z,5.38
2023-02-12T19:00:55.209Z,5.39
2023-02-12T19:03:22.334Z,5.40
2023-02-12T19:05:49.399Z,5.41
2023-02-12T19:08:16.752Z,5.44
2023-02-12T19:10:43.996Z,5.43
2023-02-12T19:13:11.135Z,5.42
2023-02-12T19:15:39.645Z,5.44
2023-02-12T19:18:07.200Z,5.44
2023-02-12T19:20:34.059Z,5.44
2023-02-12T19:23:01.085Z,5.44
2023-02-12T19:25:27.769Z,5.45
2023-02-12T19:27:54.620Z,5.46
2023-02-12T19:30:26.187Z,5.46
2023-02-12T19:33:00.399Z,5.46
2023-02-12T19:35:27.288Z,5.46
2023-02-12T19:37:54.162Z,5.48
2023-02-12T19:40:21.016Z,5.48
2023-02-12T19:42:47.752Z,5.49
2023-02-12T19:45:14.695Z,5.49
2023-02-12T19:47:41.454Z,5.48
2023-02-12T19:50:08.660Z,5.48
2023-02-12T19:52:36.594Z,5.48
2023-02-12T19:55:03.355Z,5.47
2023-02-12T19:57:30.057Z,5.47
2023-02-12T19:59:56.846Z,5.47
2023-02-12T20:02:23.648Z,5.47
2023-02-12T20:04:50.490Z,5.46
2023-02-12T20:07:17.218Z,5.45
2023-02-12T20:09:44.327Z,5.45
2023-02-12T20:12:30.087Z,5.45
2023-02-12T20:15:02.710Z,5.47
2023-02-12T20:17:30.447Z,5.47
2023-02-12T20:19:58.233Z,5.47
2023-02-12T20:22:25.547Z,5.47
2023-02-12T20:24:53.088Z,5.46
2023-02-12T20:27:20.114Z,5.44
2023-02-12T20:29:46.812Z,5.44
2023-02-12T20:32:13.662Z,5.44
2023-02-12T20:34:50.470Z,5.42
2023-02-12T20:37:18.928Z,5.40
2023-02-12T20:39:45.626Z,5.39
2023-02-12T20:42:12.699Z,5.36
2023-02-12T20:44:39.510Z,5.36
2023-02-12T20:47:06.584Z,5.34
2023-02-12T20:49:34.090Z,5.34
2023-02-12T20:52:01.314Z,5.34
2023-02-12T20:54:28.500Z,5.33
2023-02-12T20:56:55.395Z,5.32
2023-02-12T20:59:22.094Z,5.30
2023-02-12T21:01:49.106Z,5.30
2023-02-12T21:04:17.954Z,5.28
2023-02-12T21:06:45.887Z,5.26
2023-02-12T21:09:14.188Z,5.24
2023-02-12T21:11:43.102Z,5.21
2023-02-12T21:14:25.997Z,5.21
2023-02-12T21:16:55.447Z,5.19
2023-02-12T21:19:22.673Z,5.17
2023-02-12T21:21:50.134Z,5.15
2023-02-12T21:24:21.899Z,5.13
2023-02-12T21:26:50.444Z,5.12
2023-02-12T21:29:17.493Z,5.09
2023-02-12T21:31:47.824Z,5.08
2023-02-12T21:34:20.556Z,5.06
2023-02-12T21:36:49.870Z,5.05
2023-02-12T21:39:24.900Z,5.05
2023-02-12T21:41:54.491Z,5.03
2023-02-12T21:44:22.300Z,5.02
2023-02-12T21:46:49.152Z,5.00
2023-02-12T21:49:24.675Z,4.98
2023-02-12T21:51:53.181Z,4.96
2023-02-12T21:54:20.412Z,4.96
2023-02-12T21:56:48.620Z,4.94
2023-02-12T21:59:16.401Z,4.92
2023-02-12T22:01:47.065Z,4.91
2023-02-12T22:04:14.006Z,4.90
2023-02-12T22:06:42.927Z,4.88
2023-02-12T22:09:10.931Z,4.86
2023-02-12T22:11:39.018Z,4.86
2023-02-12T22:14:07.304Z,4.88
2023-02-12T22:16:35.185Z,4.87
2023-02-12T22:19:02.965Z,4.87
2023-02-12T22:21:31.699Z,4.88
2023-02-12T22:24:01.064Z,4.91
2023-02-12T22:26:29.116Z,4.92
2023-02-12T22:28:58.132Z,4.92
2023-02-12T22:31:29.332Z,4.93
2023-02-12T22:33:58.902Z,4.92
2023-02-12T22:36:26.608Z,4.93
2023-02-12T22:38:55.108Z,4.90
2023-02-12T22:41:21.958Z,4.89
2023-02-12T22:43:49.189Z,4.88
2023-02-12T22:46:16.508Z,4.86
2023-02-12T22:48:43.377Z,4.84
2023-02-12T22:51:19.596Z,4.84
2023-02-12T22:53:46.754Z,4.81
2023-02-12T22:56:13.560Z,4.79
2023-02-12T22:58:40.417Z,4.80
2023-02-12T23:01:07.168Z,4.78
2023-02-12T23:03:34.227Z,4.76
2023-02-12T23:06:02.609Z,4.74
2023-02-12T23:08:29.408Z,4.73
2023-02-12T23:10:56.268Z,4.71
2023-02-12T23:13:29.573Z,4.69
2023-02-12T23:15:57.056Z,4.67
2023-02-12T23:18:23.954Z,4.66
2023-02-12T23:20:51.934Z,4.64
2023-02-12T23:23:20.063Z,4.62
2023-02-12T23:25:47.135Z,4.62
2023-02-12T23:28:14.453Z,4.60
2023-02-12T23:30:41.226Z,4.58
2023-02-12T23:33:08.017Z,4.56
2023-02-12T23:35:34.736Z,4.54
2023-02-12T23:38:01.486Z,4.54
2023-02-12T23:40:28.225Z,4.53
2023-02-12T23:42:54.974Z,4.52
2023-02-12T23:45:21.626Z,4.51
2023-02-12T23:47:48.370Z,4.49
2023-02-12T23:50:15.229Z,4.46
2023-02-12T23:52:42.116Z,4.46
2023-02-12T23:55:09.336Z,4.44
2023-02-12T23:57:36.280Z,4.43
